Time,TemperatureF,DewpointF,PressureIn,WindDirection,WindDirectionDegrees,WindSpeedMPH,WindSpeedGustMPH,Humidity,HourlyPrecipIn,Conditions,Clouds,dailyrainin,SoftwareType,DateUTC
2013-03-11 00:00:00,59.3,31.6,30.03,East,101,2.7,7.0,35,0.00,,,0.00,WUHU216DAVISVP2,2013-03-11 04:00:00,
2013-03-11 00:05:00,59.0,31.9,30.03,East,83,1.2,6.0,36,0.00,,,0.00,WUHU216DAVISVP2,2013-03-11 04:05:00,
2013-03-11 00:10:00,58.8,31.9,30.03,WNW,296,1.1,6.0,36,0.00,,,0.00,WUHU216DAVISVP2,2013-03-11 04:10:00,
2013-03-11 00:15:00,58.7,32.3,30.03,SE,124,1.0,4.0,37,0.00,,,0.00,WUHU216DAVISVP2,2013-03-11 04:15:00,
2013-03-11 00:20:00,58.3,32.6,30.03,East,83,2.3,5.0,38,0.00,,,0.00,WUHU216DAVISVP2,2013-03-11 04:20:00,
2013-03-11 00:25:00,58.4,32.0,30.02,East,83,2.0,5.0,37,0.00,,,0.00,WUHU216DAVISVP2,2013-03-11 04:25:00,
2013-03-11 00:30:00,58.3,31.9,30.02,SW,221,1.0,4.0,37,0.00,,,0.00,WUHU216DAVISVP2,2013-03-11 04:30:00,
2013-03-11 00:35:00,58.1,31.8,30.02,SE,131,1.1,4.0,37,0.00,,,0.00,WUHU216DAVISVP2,2013-03-11 04:35:00,
2013-03-11 00:40:00,58.2,31.8,30.02,NNE,32,2.0,3.0,37,0.00,,,0.00,WUHU216DAVISVP2,2013-03-11 04:40:00,
2013-03-11 00:45:00,58.6,31.5,30.02,ESE,118,1.0,3.0,36,0.00,,,0.00,WUHU216DAVISVP2,2013-03-11 04:45:00,
2013-03-11 00:50:00,57.7,32.1,30.01,East,85,1.6,3.0,38,0.00,,,0.00,WUHU216DAVISVP2,2013-03-11 04:50:00,
2013-03-11 00:55:00,57.0,31.4,30.01,ESE,102,2.0,5.0,38,0.00,,,0.00,WUHU216DAVISVP2,2013-03-11 04:55:00,
2013-03-11 01:00:00,57.7,32.1,30.00,ESE,104,1.5,5.0,38,0.00,,,0.00,WUHU216DAVISVP2,2013-03-11 05:00:00,
2013-03-11 01:05:00,57.8,31.5,30.00,East,99,2.2,4.0,37,0.00,,,0.00,WUHU216DAVISVP2,2013-03-11 05:05:00,
2013-03-11 01:10:00,57.9,31.6,30.00,East,84,2.5,5.0,37,0.00,,,0.00,WUHU216DAVISVP2,2013-03-11 05:10:00,
2013-03-11 01:15:00,57.7,31.4,30.00,NE,53,1.7,5.0,37,0.00,,,0.00,WUHU216DAVISVP2,2013-03-11 05:15:00,
2013-03-11 01:20:00,58.0,31.7,29.99,ESE,115,1.7,5.0,37,0.00,,,0.00,WUHU216DAVISVP2,2013-03-11 05:20:00,
2013-03-11 01:25:00,58.2,31.8,29.99,East,97,2.0,5.0,37,0.00,,,0.00,WUHU216DAVISVP2,2013-03-11 05:25:00,
2013-03-11 01:30:00,57.8,31.5,30.00,ESE,120,1.0,4.0,37,0.00,,,0.00,WUHU216DAVISVP2,2013-03-11 05:30:00,
2013-03-11 01:35:00,57.9,31.6,30.00,ESE,110,1.5,4.0,37,0.00,,,0.00,WUHU216DAVISVP2,2013-03-11 05:35:00,
2013-03-11 01:40:00,58.3,31.2,30.00,SE,139,1.5,6.0,36,0.00,,,0.00,WUHU216DAVISVP2,2013-03-11 05:40:00,
2013-03-11 01:45:00,58.7,30.9,30.00,East,96,2.0,9.0,35,0.00,,,0.00,WUHU216DAVISVP2,2013-03-11 05:45:00,
2013-03-11 01:50:00,59.0,31.9,29.99,NNE,17,1.3,9.0,36,0.00,,,0.00,WUHU216DAVISVP2,2013-03-11 05:50:00,
2013-03-11 01:55:00,58.8,31.7,29.99,WNW,302,1.1,8.0,36,0.00,,,0.00,WUHU216DAVISVP2,2013-03-11 05:55:00,
2013-03-11 02:00:00,58.9,31.1,30.00,East,83,1.3,8.0,35,0.00,,,0.00,WUHU216DAVISVP2,2013-03-11 06:00:00,
2013-03-11 02:05:00,58.1,31.8,30.00,ESE,103,1.0,6.0,37,0.00,,,0.00,WUHU216DAVISVP2,2013-03-11 06:05:00,
2013-03-11 02:10:00,57.8,31.5,30.00,SE,132,2.0,6.0,37,0.00,,,0.00,WUHU216DAVISVP2,2013-03-11 06:10:00,
2013-03-11 02:15:00,58.2,31.2,30.00,SSE,163,1.0,5.0,36,0.00,,,0.00,WUHU216DAVISVP2,2013-03-11 06:15:00,
2013-03-11 02:20:00,58.2,31.3,30.00,ENE,60,2.4,5.0,36,0.00,,,0.00,WUHU216DAVISVP2,2013-03-11 06:20:00,
2013-03-11 02:25:00,58.3,31.9,29.99,East,84,1.5,5.0,37,0.00,,,0.00,WUHU216DAVISVP2,2013-03-11 06:25:00,
2013-03-11 02:30:00,57.9,31.6,29.99,East,87,2.0,5.0,37,0.00,,,0.00,WUHU216DAVISVP2,2013-03-11 06:30:00,
2013-03-11 02:35:00,58.1,31.8,29.98,ESE,103,1.9,5.0,37,0.00,,,0.00,WUHU216DAVISVP2,2013-03-11 06:35:00,
2013-03-11 02:40:00,57.6,31.3,29.98,East,92,1.4,4.0,37,0.00,,,0.00,WUHU216DAVISVP2,2013-03-11 06:40:00,
2013-03-11 02:45:00,58.0,31.7,29.98,ESE,115,3.6,8.0,37,0.00,,,0.00,WUHU216DAVISVP2,2013-03-11 06:45:00,
2013-03-11 02:50:00,57.7,32.1,29.98,NE,41,1.6,8.0,38,0.00,,,0.00,WUHU216DAVISVP2,2013-03-11 06:50:00,
2013-03-11 02:55:00,57.4,31.1,29.98,SE,142,1.0,7.0,37,0.00,,,0.00,WUHU216DAVISVP2,2013-03-11 06:55:00,
2013-03-11 03:00:00,57.7,31.4,29.99,WSW,239,1.3,7.0,37,0.00,,,0.00,WUHU216DAVISVP2,2013-03-11 07:00:00,
2013-03-11 03:05:00,57.8,31.5,29.98,ESE,119,1.2,5.0,37,0.00,,,0.00,WUHU216DAVISVP2,2013-03-11 07:05:00,
2013-03-11 03:10:00,57.9,31.6,29.97,East,99,3.2,6.0,37,0.00,,,0.00,WUHU216DAVISVP2,2013-03-11 07:10:00,
2013-03-11 03:15:00,58.1,31.3,29.97,ESE,113,2.1,6.0,36,0.00,,,0.00,WUHU216DAVISVP2,2013-03-11 07:15:00,
2013-03-11 03:20:00,58.2,31.3,29.97,ESE,109,1.0,5.0,36,0.00,,,0.00,WUHU216DAVISVP2,2013-03-11 07:20:00,
2013-03-11 03:25:00,58.2,31.3,29.96,SE,125,1.9,7.0,36,0.00,,,0.00,WUHU216DAVISVP2,2013-03-11 07:25:00,
2013-03-11 03:30:00,58.2,32.0,29.95,ENE,59,2.0,7.0,37,0.00,,,0.00,WUHU216DAVISVP2,2013-03-11 07:30:00,
2013-03-11 03:35:00,58.2,32.0,29.95,ESE,123,1.5,6.0,37,0.00,,,0.00,WUHU216DAVISVP2,2013-03-11 07:35:00,
2013-03-11 03:40:00,58.1,31.9,29.95,ENE,57,1.3,6.0,37,0.00,,,0.00,WUHU216DAVISVP2,2013-03-11 07:40:00,
2013-03-11 03:45:00,58.1,31.8,29.95,East,101,2.6,10.0,37,0.00,,,0.00,WUHU216DAVISVP2,2013-03-11 07:45:00,
2013-03-11 03:50:00,58.3,31.2,29.95,ESE,123,1.8,10.0,36,0.00,,,0.00,WUHU216DAVISVP2,2013-03-11 07:50:00,
2013-03-11 03:55:00,58.4,31.3,29.94,ESE,110,3.2,9.0,36,0.00,,,0.00,WUHU216DAVISVP2,2013-03-11 07:55:00,
2013-03-11 04:00:00,58.0,31.0,29.94,SE,135,1.4,9.0,36,0.00,,,0.00,WUHU216DAVISVP2,2013-03-11 08:00:00,
2013-03-11 04:05:00,57.7,32.1,29.93,NNW,331,3.0,5.0,38,0.00,,,0.00,WUHU216DAVISVP2,2013-03-11 08:05:00,
2013-03-11 04:10:00,57.5,31.9,29.93,ENE,63,3.0,5.0,38,0.00,,,0.00,WUHU216DAVISVP2,2013-03-11 08:10:00,
2013-03-11 04:15:00,57.4,31.1,29.93,West,265,2.3,7.0,37,0.00,,,0.00,WUHU216DAVISVP2,2013-03-11 08:15:00,
2013-03-11 04:20:00,57.6,31.3,29.93,ENE,63,2.0,7.0,37,0.00,,,0.00,WUHU216DAVISVP2,2013-03-11 08:20:00,
2013-03-11 04:25:00,56.8,31.3,29.93,NNW,330,1.2,7.0,38,0.00,,,0.00,WUHU216DAVISVP2,2013-03-11 08:25:00,
2013-03-11 04:30:00,56.0,31.8,29.93,ESE,105,1.2,7.0,40,0.00,,,0.00,WUHU216DAVISVP2,2013-03-11 08:30:00,
2013-03-11 04:35:00,55.7,31.6,29.92,ENE,69,1.7,5.0,40,0.00,,,0.00,WUHU216DAVISVP2,2013-03-11 08:35:00,
2013-03-11 04:40:00,55.1,31.7,29.92,ENE,68,0.0,3.0,41,0.00,,,0.00,WUHU216DAVISVP2,2013-03-11 08:40:00,
2013-03-11 04:45:00,54.7,31.3,29.92,ENE,72,2.0,3.0,41,0.00,,,0.00,WUHU216DAVISVP2,2013-03-11 08:45:00,
2013-03-11 04:50:00,54.7,31.3,29.92,North,4,1.4,3.0,41,0.00,,,0.00,WUHU216DAVISVP2,2013-03-11 08:50:00,
2013-03-11 04:55:00,56.1,31.3,29.91,East,94,2.0,4.0,39,0.00,,,0.00,WUHU216DAVISVP2,2013-03-11 08:55:00,
2013-03-11 05:00:00,56.3,31.5,29.92,SE,126,1.3,4.0,39,0.00,,,0.00,WUHU216DAVISVP2,2013-03-11 09:00:00,
2013-03-11 05:05:00,55.7,32.8,29.91,SE,134,1.0,4.0,42,0.00,,,0.00,WUHU216DAVISVP2,2013-03-11 09:05:00,
2013-03-11 05:10:00,55.0,30.9,29.90,ENE,77,5.0,5.0,40,0.00,,,0.00,WUHU216DAVISVP2,2013-03-11 09:10:00,
2013-03-11 05:15:00,55.7,31.6,29.91,SSE,155,0.0,5.0,40,0.00,,,0.00,WUHU216DAVISVP2,2013-03-11 09:15:00,
2013-03-11 05:20:00,55.6,31.5,29.91,NNE,22,1.1,5.0,40,0.00,,,0.00,WUHU216DAVISVP2,2013-03-11 09:20:00,
2013-03-11 05:25:00,54.7,32.5,29.91,ESE,113,1.0,5.0,43,0.00,,,0.00,WUHU216DAVISVP2,2013-03-11 09:25:00,
2013-03-11 05:30:00,54.7,31.9,29.91,ENE,73,1.4,3.0,42,0.00,,,0.00,WUHU216DAVISVP2,2013-03-11 09:30:00,
2013-03-11 05:35:00,54.6,33.0,29.91,ESE,105,4.0,4.0,44,0.00,,,0.00,WUHU216DAVISVP2,2013-03-11 09:35:00,
2013-03-11 05:40:00,55.7,31.6,29.91,ESE,116,2.0,4.0,40,0.00,,,0.00,WUHU216DAVISVP2,2013-03-11 09:40:00,
2013-03-11 05:45:00,56.6,32.4,29.91,ESE,123,1.0,5.0,40,0.00,,,0.00,WUHU216DAVISVP2,2013-03-11 09:45:00,
2013-03-11 05:50:00,56.8,31.9,29.91,ESE,120,2.9,7.0,39,0.00,,,0.00,WUHU216DAVISVP2,2013-03-11 09:50:00,
2013-03-11 05:55:00,57.2,31.6,29.90,East,100,2.0,7.0,38,0.00,,,0.00,WUHU216DAVISVP2,2013-03-11 09:55:00,
2013-03-11 06:00:00,57.3,31.7,29.90,East,97,1.4,7.0,38,0.00,,,0.00,WUHU216DAVISVP2,2013-03-11 10:00:00,
2013-03-11 06:05:00,56.9,32.0,29.91,WSW,240,1.4,7.0,39,0.00,,,0.00,WUHU216DAVISVP2,2013-03-11 10:05:00,
2013-03-11 06:10:00,56.7,31.8,29.91,ESE,102,2.0,3.0,39,0.00,,,0.00,WUHU216DAVISVP2,2013-03-11 10:10:00,
2013-03-11 06:15:00,56.7,31.2,29.91,SSW,200,3.0,4.0,38,0.00,,,0.00,WUHU216DAVISVP2,2013-03-11 10:15:00,
2013-03-11 06:20:00,57.2,31.6,29.90,NNW,342,2.0,5.0,38,0.00,,,0.00,WUHU216DAVISVP2,2013-03-11 10:20:00,
2013-03-11 06:25:00,57.3,31.0,29.91,SSE,150,0.0,5.0,37,0.00,,,0.00,WUHU216DAVISVP2,2013-03-11 10:25:00,
2013-03-11 06:30:00,57.1,31.5,29.91,East,98,3.7,8.0,38,0.00,,,0.00,WUHU216DAVISVP2,2013-03-11 10:30:00,
2013-03-11 06:35:00,57.4,31.3,29.91,ESE,122,1.4,8.0,37,0.00,,,0.00,WUHU216DAVISVP2,2013-03-11 10:35:00,
2013-03-11 06:40:00,57.0,31.4,29.91,SE,136,1.0,7.0,38,0.00,,,0.00,WUHU216DAVISVP2,2013-03-11 10:40:00,
2013-03-11 06:45:00,56.6,31.7,29.91,East,90,1.5,7.0,39,0.00,,,0.00,WUHU216DAVISVP2,2013-03-11 10:45:00,
2013-03-11 06:50:00,56.7,31.8,29.91,East,99,1.6,5.0,39,0.00,,,0.00,WUHU216DAVISVP2,2013-03-11 10:50:00,
2013-03-11 06:55:00,56.5,31.6,29.90,ENE,62,1.5,3.0,39,0.00,,,0.00,WUHU216DAVISVP2,2013-03-11 10:55:00,
2013-03-11 07:00:00,56.6,31.7,29.91,WSW,241,1.8,4.0,39,0.00,,,0.00,WUHU216DAVISVP2,2013-03-11 11:00:00,
2013-03-11 07:05:00,57.0,31.4,29.91,South,190,2.4,5.0,38,0.00,,,0.00,WUHU216DAVISVP2,2013-03-11 11:05:00,
2013-03-11 07:10:00,57.1,32.2,29.91,WSW,249,1.0,5.0,39,0.00,,,0.00,WUHU216DAVISVP2,2013-03-11 11:10:00,
2013-03-11 07:15:00,56.3,32.9,29.91,WSW,256,0.0,5.0,41,0.00,,,0.00,WUHU216DAVISVP2,2013-03-11 11:15:00,
2013-03-11 07:20:00,56.1,32.1,29.91,ESE,116,1.5,5.0,40,0.00,,,0.00,WUHU216DAVISVP2,2013-03-11 11:20:00,
2013-03-11 07:25:00,56.5,32.9,29.91,NNE,32,2.7,7.0,41,0.00,,,0.00,WUHU216DAVISVP2,2013-03-11 11:25:00,
2013-03-11 07:30:00,56.2,32.0,29.92,WSW,241,1.4,7.0,40,0.00,,,0.00,WUHU216DAVISVP2,2013-03-11 11:30:00,
2013-03-11 07:35:00,56.3,32.7,29.92,SE,124,1.3,7.0,41,0.00,,,0.00,WUHU216DAVISVP2,2013-03-11 11:35:00,
2013-03-11 07:40:00,55.6,33.9,29.92,SE,129,1.0,7.0,44,0.00,,,0.00,WUHU216DAVISVP2,2013-03-11 11:40:00,
2013-03-11 07:45:00,55.1,32.9,29.92,SE,129,1.0,4.0,43,0.00,,,0.00,WUHU216DAVISVP2,2013-03-11 11:45:00,
2013-03-11 07:50:00,53.0,33.8,29.92,WSW,240,1.5,4.0,48,0.00,,,0.00,WUHU216DAVISVP2,2013-03-11 11:50:00,
2013-03-11 07:55:00,52.8,34.1,29.92,ESE,113,1.0,3.0,49,0.00,,,0.00,WUHU216DAVISVP2,2013-03-11 11:55:00,
2013-03-11 08:00:00,52.7,34.0,29.92,ESE,113,0.0,3.0,49,0.00,,,0.00,WUHU216DAVISVP2,2013-03-11 12:00:00,
2013-03-11 08:05:00,52.4,34.3,29.92,ESE,113,1.5,2.0,50,0.00,,,0.00,WUHU216DAVISVP2,2013-03-11 12:05:00,
2013-03-11 08:10:00,52.6,33.4,29.92,ESE,111,0.0,2.0,48,0.00,,,0.00,WUHU216DAVISVP2,2013-03-11 12:10:00,
2013-03-11 08:15:00,53.0,33.8,29.92,WSW,237,1.0,2.0,48,0.00,,,0.00,WUHU216DAVISVP2,2013-03-11 12:15:00,
2013-03-11 08:20:00,52.8,32.6,29.92,WSW,253,0.0,2.0,46,0.00,,,0.00,WUHU216DAVISVP2,2013-03-11 12:20:00,
2013-03-11 08:25:00,53.4,33.7,29.92,WNW,298,1.0,1.0,47,0.00,,,0.00,WUHU216DAVISVP2,2013-03-11 12:25:00,
2013-03-11 08:30:00,53.6,32.8,29.92,WNW,298,1.0,1.0,45,0.00,,,0.00,WUHU216DAVISVP2,2013-03-11 12:30:00,
2013-03-11 08:35:00,53.8,34.0,29.93,North,7,1.2,2.0,47,0.00,,,0.00,WUHU216DAVISVP2,2013-03-11 12:35:00,
2013-03-11 08:40:00,53.8,34.6,29.93,ENE,68,1.0,2.0,48,0.00,,,0.00,WUHU216DAVISVP2,2013-03-11 12:40:00,
2013-03-11 08:45:00,53.7,33.9,29.93,ENE,68,0.0,2.0,47,0.00,,,0.00,WUHU216DAVISVP2,2013-03-11 12:45:00,
2013-03-11 08:50:00,53.7,34.5,29.94,ENE,68,0.0,2.0,48,0.00,,,0.00,WUHU216DAVISVP2,2013-03-11 12:50:00,
2013-03-11 08:55:00,53.8,34.6,29.94,ENE,68,1.0,1.0,48,0.00,,,0.00,WUHU216DAVISVP2,2013-03-11 12:55:00,
2013-03-11 09:00:00,54.1,35.3,29.94,NW,324,1.5,3.0,49,0.00,,,0.00,WUHU216DAVISVP2,2013-03-11 13:00:00,
2013-03-11 09:05:00,54.1,34.2,29.94,ESE,111,0.0,3.0,47,0.00,,,0.00,WUHU216DAVISVP2,2013-03-11 13:05:00,
2013-03-11 09:10:00,54.8,35.4,29.94,ESE,111,0.0,3.0,48,0.00,,,0.00,WUHU216DAVISVP2,2013-03-11 13:10:00,
2013-03-11 09:15:00,55.3,33.6,29.94,East,87,2.0,3.0,44,0.00,,,0.00,WUHU216DAVISVP2,2013-03-11 13:15:00,
2013-03-11 09:20:00,56.2,33.3,29.94,SSE,150,0.0,3.0,42,0.00,,,0.00,WUHU216DAVISVP2,2013-03-11 13:20:00,
2013-03-11 09:25:00,56.7,33.1,29.94,SE,135,1.0,3.0,41,0.00,,,0.00,WUHU216DAVISVP2,2013-03-11 13:25:00,
2013-03-11 09:30:00,57.2,32.9,29.94,ESE,105,1.6,5.0,40,0.00,,,0.00,WUHU216DAVISVP2,2013-03-11 13:30:00,
2013-03-11 09:35:00,57.7,33.4,29.94,WSW,240,2.0,5.0,40,0.00,,,0.00,WUHU216DAVISVP2,2013-03-11 13:35:00,
2013-03-11 09:40:00,58.0,33.6,29.94,SW,224,4.0,7.0,40,0.00,,,0.00,WUHU216DAVISVP2,2013-03-11 13:40:00,
2013-03-11 09:45:00,58.4,34.0,29.94,SE,134,1.5,7.0,40,0.00,,,0.00,WUHU216DAVISVP2,2013-03-11 13:45:00,
2013-03-11 09:50:00,58.7,34.3,29.94,SE,125,1.5,7.0,40,0.00,,,0.00,WUHU216DAVISVP2,2013-03-11 13:50:00,
2013-03-11 09:55:00,58.8,34.4,29.94,SE,134,2.1,6.0,40,0.00,,,0.00,WUHU216DAVISVP2,2013-03-11 13:55:00,
2013-03-11 10:00:00,59.0,34.5,29.93,SE,129,1.7,8.0,40,0.00,,,0.00,WUHU216DAVISVP2,2013-03-11 14:00:00,
2013-03-11 10:05:00,59.1,34.0,29.93,East,90,2.0,8.0,39,0.00,,,0.00,WUHU216DAVISVP2,2013-03-11 14:05:00,
2013-03-11 10:10:00,59.2,35.4,29.93,SSW,206,1.4,7.0,41,0.00,,,0.00,WUHU216DAVISVP2,2013-03-11 14:10:00,
2013-03-11 10:15:00,59.3,35.4,29.93,SE,131,1.5,7.0,41,0.00,,,0.00,WUHU216DAVISVP2,2013-03-11 14:15:00,
2013-03-11 10:20:00,59.3,35.4,29.93,NNW,347,2.0,6.0,41,0.00,,,0.00,WUHU216DAVISVP2,2013-03-11 14:20:00,
2013-03-11 10:25:00,59.4,36.2,29.93,SE,128,3.0,6.0,42,0.00,,,0.00,WUHU216DAVISVP2,2013-03-11 14:25:00,
2013-03-11 10:30:00,59.5,36.3,29.93,SW,227,2.4,4.0,42,0.00,,,0.00,WUHU216DAVISVP2,2013-03-11 14:30:00,
2013-03-11 10:35:00,59.5,36.3,29.93,East,81,1.0,4.0,42,0.00,,,0.00,WUHU216DAVISVP2,2013-03-11 14:35:00,
2013-03-11 10:40:00,59.6,37.1,29.93,WSW,243,2.0,4.0,43,0.00,,,0.00,WUHU216DAVISVP2,2013-03-11 14:40:00,
2013-03-11 10:45:00,59.8,37.7,29.92,ESE,116,1.3,6.0,44,0.00,,,0.00,WUHU216DAVISVP2,2013-03-11 14:45:00,
2013-03-11 10:50:00,59.8,38.3,29.91,East,84,3.0,9.0,45,0.00,,,0.00,WUHU216DAVISVP2,2013-03-11 14:50:00,
2013-03-11 10:55:00,59.8,38.9,29.92,ESE,109,1.9,9.0,46,0.00,,,0.00,WUHU216DAVISVP2,2013-03-11 14:55:00,
2013-03-11 11:00:00,60.0,39.7,29.91,WSW,243,1.5,8.0,47,0.00,,,0.00,WUHU216DAVISVP2,2013-03-11 15:00:00,
2013-03-11 11:05:00,60.0,39.7,29.91,West,263,3.0,6.0,47,0.00,,,0.00,WUHU216DAVISVP2,2013-03-11 15:05:00,
2013-03-11 11:10:00,60.1,39.8,29.91,South,169,2.3,8.0,47,0.00,,,0.00,WUHU216DAVISVP2,2013-03-11 15:10:00,
2013-03-11 11:15:00,60.1,40.3,29.91,SW,235,2.0,8.0,48,0.00,,,0.00,WUHU216DAVISVP2,2013-03-11 15:15:00,
2013-03-11 11:20:00,60.0,40.2,29.91,ENE,71,2.0,9.0,48,0.00,,,0.00,WUHU216DAVISVP2,2013-03-11 15:20:00,
2013-03-11 11:25:00,60.0,40.2,29.90,East,83,4.0,9.0,48,0.00,,,0.00,WUHU216DAVISVP2,2013-03-11 15:25:00,
2013-03-11 11:30:00,60.1,40.3,29.90,ESE,116,3.0,8.0,48,0.00,,,0.00,WUHU216DAVISVP2,2013-03-11 15:30:00,
2013-03-11 11:35:00,60.2,40.4,29.90,SW,219,4.0,8.0,48,0.00,,,0.00,WUHU216DAVISVP2,2013-03-11 15:35:00,
2013-03-11 11:40:00,60.3,41.0,29.89,ESE,108,2.4,8.0,49,0.00,,,0.00,WUHU216DAVISVP2,2013-03-11 15:40:00,
2013-03-11 11:45:00,60.3,40.5,29.88,ESE,122,4.0,8.0,48,0.00,,,0.00,WUHU216DAVISVP2,2013-03-11 15:45:00,
2013-03-11 11:50:00,60.3,40.5,29.88,WSW,238,2.2,13.0,48,0.00,,,0.00,WUHU216DAVISVP2,2013-03-11 15:50:00,
2013-03-11 11:55:00,60.4,41.1,29.88,ENE,73,1.6,13.0,49,0.00,,,0.00,WUHU216DAVISVP2,2013-03-11 15:55:00,
2013-03-11 12:00:00,60.4,41.1,29.87,ESE,104,2.2,12.0,49,0.00,,,0.00,WUHU216DAVISVP2,2013-03-11 16:00:00,
2013-03-11 12:05:00,60.4,41.1,29.86,SE,143,1.2,12.0,49,0.00,,,0.00,WUHU216DAVISVP2,2013-03-11 16:05:00,
2013-03-11 12:10:00,60.5,40.7,29.88,WSW,250,4.0,8.0,48,0.00,,,0.00,WUHU216DAVISVP2,2013-03-11 16:10:00,
2013-03-11 12:15:00,60.5,41.2,29.86,ESE,105,4.0,10.0,49,0.00,,,0.00,WUHU216DAVISVP2,2013-03-11 16:15:00,
2013-03-11 12:20:00,60.5,41.2,29.86,West,262,7.0,10.0,49,0.00,,,0.00,WUHU216DAVISVP2,2013-03-11 16:20:00,
2013-03-11 12:25:00,60.4,41.7,29.86,North,11,1.0,9.0,50,0.00,,,0.00,WUHU216DAVISVP2,2013-03-11 16:25:00,
2013-03-11 12:30:00,60.4,41.1,29.87,ESE,116,4.0,9.0,49,0.00,,,0.00,WUHU216DAVISVP2,2013-03-11 16:30:00,
2013-03-11 12:35:00,60.5,41.2,29.88,SSE,165,2.0,10.0,49,0.00,,,0.00,WUHU216DAVISVP2,2013-03-11 16:35:00,
2013-03-11 12:40:00,60.6,41.3,29.87,WSW,252,2.5,10.0,49,0.00,,,0.00,WUHU216DAVISVP2,2013-03-11 16:40:00,
2013-03-11 12:45:00,60.8,41.5,29.86,ENE,62,2.0,12.0,49,0.00,,,0.00,WUHU216DAVISVP2,2013-03-11 16:45:00,
2013-03-11 12:50:00,60.8,41.5,29.86,ESE,106,2.8,12.0,49,0.00,,,0.00,WUHU216DAVISVP2,2013-03-11 16:50:00,
2013-03-11 12:55:00,60.9,41.6,29.86,South,189,2.6,12.0,49,0.00,,,0.00,WUHU216DAVISVP2,2013-03-11 16:55:00,
2013-03-11 13:00:00,61.1,41.8,29.87,WSW,239,1.0,12.0,49,0.00,,,0.00,WUHU216DAVISVP2,2013-03-11 17:00:00,
2013-03-11 13:05:00,61.1,41.8,29.86,ESE,118,2.3,11.0,49,0.00,,,0.00,WUHU216DAVISVP2,2013-03-11 17:05:00,
2013-03-11 13:10:00,61.2,41.9,29.86,East,97,1.9,11.0,49,0.00,,,0.00,WUHU216DAVISVP2,2013-03-11 17:10:00,
2013-03-11 13:15:00,61.2,41.9,29.86,WSW,251,2.0,8.0,49,0.00,,,0.00,WUHU216DAVISVP2,2013-03-11 17:15:00,
2013-03-11 13:20:00,61.2,41.3,29.85,West,268,3.0,8.0,48,0.00,,,0.00,WUHU216DAVISVP2,2013-03-11 17:20:00,
2013-03-11 13:25:00,61.2,41.9,29.85,ESE,113,4.1,15.0,49,0.00,,,0.00,WUHU216DAVISVP2,2013-03-11 17:25:00,
2013-03-11 13:30:00,61.1,41.8,29.85,ENE,76,1.5,15.0,49,0.00,,,0.00,WUHU216DAVISVP2,2013-03-11 17:30:00,
2013-03-11 13:35:00,61.2,41.9,29.85,NNW,329,1.7,14.0,49,0.00,,,0.00,WUHU216DAVISVP2,2013-03-11 17:35:00,
2013-03-11 13:40:00,61.3,42.0,29.85,WNW,284,3.0,14.0,49,0.00,,,0.00,WUHU216DAVISVP2,2013-03-11 17:40:00,
2013-03-11 13:45:00,61.4,42.1,29.85,ESE,115,1.7,6.0,49,0.00,,,0.00,WUHU216DAVISVP2,2013-03-11 17:45:00,
2013-03-11 13:50:00,61.5,41.6,29.85,SE,128,3.0,10.0,48,0.00,,,0.00,WUHU216DAVISVP2,2013-03-11 17:50:00,
2013-03-11 13:55:00,61.5,41.6,29.85,East,89,5.0,11.0,48,0.00,,,0.00,WUHU216DAVISVP2,2013-03-11 17:55:00,
2013-03-11 14:00:00,61.5,41.6,29.85,East,94,5.9,13.0,48,0.00,,,0.00,WUHU216DAVISVP2,2013-03-11 18:00:00,
2013-03-11 14:05:00,61.4,42.1,29.85,ESE,114,3.5,13.0,49,0.00,,,0.00,WUHU216DAVISVP2,2013-03-11 18:05:00,
2013-03-11 14:10:00,61.4,42.1,29.85,East,90,6.0,12.0,49,0.00,,,0.00,WUHU216DAVISVP2,2013-03-11 18:10:00,
2013-03-11 14:15:00,61.4,42.1,29.85,South,183,2.0,12.0,49,0.00,,,0.00,WUHU216DAVISVP2,2013-03-11 18:15:00,
2013-03-11 14:20:00,61.3,42.0,29.84,SE,134,5.4,11.0,49,0.00,,,0.00,WUHU216DAVISVP2,2013-03-11 18:20:00,
2013-03-11 14:25:00,61.2,42.4,29.84,ESE,109,2.3,11.0,50,0.00,,,0.00,WUHU216DAVISVP2,2013-03-11 18:25:00,
2013-03-11 14:30:00,61.1,42.9,29.83,ESE,115,2.9,11.0,51,0.00,,,0.00,WUHU216DAVISVP2,2013-03-11 18:30:00,
2013-03-11 14:35:00,61.0,42.8,29.83,ESE,113,8.0,11.0,51,0.00,,,0.00,WUHU216DAVISVP2,2013-03-11 18:35:00,
2013-03-11 14:40:00,61.0,42.8,29.83,SW,218,2.2,11.0,51,0.00,,,0.00,WUHU216DAVISVP2,2013-03-11 18:40:00,
2013-03-11 14:45:00,60.9,42.7,29.82,ESE,115,3.6,9.0,51,0.00,,,0.00,WUHU216DAVISVP2,2013-03-11 18:45:00,
2013-03-11 14:50:00,60.9,42.7,29.82,NNE,27,2.0,9.0,51,0.00,,,0.00,WUHU216DAVISVP2,2013-03-11 18:50:00,
2013-03-11 14:55:00,60.9,42.7,29.82,SE,126,3.6,14.0,51,0.00,,,0.00,WUHU216DAVISVP2,2013-03-11 18:55:00,
2013-03-11 15:00:00,60.9,43.2,29.81,ENE,66,6.0,14.0,52,0.00,,,0.00,WUHU216DAVISVP2,2013-03-11 19:00:00,
2013-03-11 15:05:00,60.8,43.1,29.80,East,96,3.0,14.0,52,0.00,,,0.00,WUHU216DAVISVP2,2013-03-11 19:05:00,
2013-03-11 15:10:00,60.7,43.0,29.80,West,276,3.0,14.0,52,0.00,,,0.00,WUHU216DAVISVP2,2013-03-11 19:10:00,
2013-03-11 15:15:00,60.7,43.0,29.79,East,100,3.2,10.0,52,0.00,,,0.00,WUHU216DAVISVP2,2013-03-11 19:15:00,
2013-03-11 15:20:00,60.7,43.0,29.79,SE,134,6.0,10.0,52,0.00,,,0.00,WUHU216DAVISVP2,2013-03-11 19:20:00,
2013-03-11 15:25:00,60.7,43.5,29.78,WNW,287,6.0,11.0,53,0.00,,,0.00,WUHU216DAVISVP2,2013-03-11 19:25:00,
2013-03-11 15:30:00,60.8,43.6,29.77,ESE,102,3.8,13.0,53,0.00,,,0.00,WUHU216DAVISVP2,2013-03-11 19:30:00,
2013-03-11 15:35:00,60.9,43.6,29.77,North,351,2.1,13.0,53,0.00,,,0.00,WUHU216DAVISVP2,2013-03-11 19:35:00,
2013-03-11 15:40:00,60.9,43.6,29.77,South,169,4.0,13.0,53,0.00,,,0.00,WUHU216DAVISVP2,2013-03-11 19:40:00,
2013-03-11 15:45:00,61.0,43.7,29.78,ESE,107,3.0,13.0,53,0.00,,,0.00,WUHU216DAVISVP2,2013-03-11 19:45:00,
2013-03-11 15:50:00,61.0,43.7,29.77,WSW,258,5.0,11.0,53,0.00,,,0.00,WUHU216DAVISVP2,2013-03-11 19:50:00,
2013-03-11 15:55:00,60.9,43.6,29.78,East,98,5.0,12.0,53,0.00,,,0.00,WUHU216DAVISVP2,2013-03-11 19:55:00,
2013-03-11 16:00:00,61.0,44.2,29.76,East,96,6.1,18.0,54,0.00,,,0.00,WUHU216DAVISVP2,2013-03-11 20:00:00,
2013-03-11 16:05:00,61.1,44.3,29.78,SE,127,3.0,18.0,54,0.00,,,0.00,WUHU216DAVISVP2,2013-03-11 20:05:00,
2013-03-11 16:10:00,61.3,44.5,29.78,SE,124,4.1,17.0,54,0.00,,,0.00,WUHU216DAVISVP2,2013-03-11 20:10:00,
2013-03-11 16:15:00,61.3,44.5,29.78,SE,126,1.3,17.0,54,0.00,,,0.00,WUHU216DAVISVP2,2013-03-11 20:15:00,
2013-03-11 16:20:00,61.4,44.6,29.78,West,277,4.0,9.0,54,0.00,,,0.00,WUHU216DAVISVP2,2013-03-11 20:20:00,
2013-03-11 16:25:00,61.5,44.7,29.78,West,267,3.1,12.0,54,0.00,,,0.00,WUHU216DAVISVP2,2013-03-11 20:25:00,
2013-03-11 16:30:00,61.4,44.6,29.78,WSW,238,4.0,12.0,54,0.00,,,0.00,WUHU216DAVISVP2,2013-03-11 20:30:00,
2013-03-11 16:35:00,61.4,44.6,29.77,SE,132,10.0,21.0,54,0.00,,,0.00,WUHU216DAVISVP2,2013-03-11 20:35:00,
2013-03-11 16:40:00,61.4,44.6,29.76,SSE,159,4.5,21.0,54,0.00,,,0.00,WUHU216DAVISVP2,2013-03-11 20:40:00,
2013-03-11 16:45:00,61.4,44.6,29.76,ESE,113,9.1,23.0,54,0.00,,,0.00,WUHU216DAVISVP2,2013-03-11 20:45:00,
2013-03-11 16:50:00,61.5,45.2,29.76,West,266,6.0,23.0,55,0.00,,,0.00,WUHU216DAVISVP2,2013-03-11 20:50:00,
2013-03-11 16:56:00,61.5,44.8,29.76,East,81,3.2,22.0,54,0.00,,,0.00,WUHU216DAVISVP2,2013-03-11 20:56:00,
2013-03-11 17:00:00,61.5,44.8,29.74,ENE,75,11.0,22.0,54,0.00,,,0.00,WUHU216DAVISVP2,2013-03-11 21:00:00,
2013-03-11 17:06:00,61.5,44.8,29.74,East,94,6.7,15.0,54,0.00,,,0.00,WUHU216DAVISVP2,2013-03-11 21:06:00,
2013-03-11 17:11:00,61.5,45.3,29.74,ESE,120,5.0,15.0,55,0.00,,,0.00,WUHU216DAVISVP2,2013-03-11 21:11:00,
2013-03-11 17:16:00,61.4,44.7,29.75,ESE,115,5.6,14.0,54,0.00,,,0.00,WUHU216DAVISVP2,2013-03-11 21:16:00,
2013-03-11 17:21:00,61.5,44.8,29.74,ESE,118,8.2,17.0,54,0.00,,,0.00,WUHU216DAVISVP2,2013-03-11 21:21:00,
2013-03-11 17:26:00,61.5,44.8,29.75,ESE,114,7.0,18.0,54,0.00,,,0.00,WUHU216DAVISVP2,2013-03-11 21:26:00,
2013-03-11 17:31:00,61.5,44.8,29.74,SSE,155,15.0,18.0,54,0.00,,,0.00,WUHU216DAVISVP2,2013-03-11 21:31:00,
2013-03-11 17:36:00,61.6,44.9,29.73,ESE,111,5.0,18.0,54,0.00,,,0.00,WUHU216DAVISVP2,2013-03-11 21:36:00,
2013-03-11 17:41:00,61.5,44.8,29.74,South,184,6.0,15.0,54,0.00,,,0.00,WUHU216DAVISVP2,2013-03-11 21:41:00,
2013-03-11 17:46:00,61.5,44.8,29.74,SE,142,4.0,15.0,54,0.00,,,0.00,WUHU216DAVISVP2,2013-03-11 21:46:00,
2013-03-11 17:51:00,61.5,44.7,29.72,East,82,6.0,14.0,54,0.00,,,0.00,WUHU216DAVISVP2,2013-03-11 21:51:00,
2013-03-11 17:56:00,61.5,44.8,29.72,SE,145,6.2,14.0,54,0.00,,,0.00,WUHU216DAVISVP2,2013-03-11 21:56:00,
2013-03-11 18:01:00,61.4,44.7,29.73,WSW,244,4.0,14.0,54,0.00,,,0.00,WUHU216DAVISVP2,2013-03-11 22:01:00,
2013-03-11 18:06:00,61.4,44.7,29.74,SE,129,2.3,13.0,54,0.00,,,0.00,WUHU216DAVISVP2,2013-03-11 22:06:00,
2013-03-11 18:11:00,61.4,44.7,29.75,ESE,103,8.0,13.0,54,0.00,,,0.00,WUHU216DAVISVP2,2013-03-11 22:11:00,
2013-03-11 18:16:00,61.4,44.7,29.75,SE,127,1.2,12.0,54,0.00,,,0.00,WUHU216DAVISVP2,2013-03-11 22:16:00,
2013-03-11 18:21:00,61.2,44.4,29.75,ENE,67,4.0,12.0,54,0.00,,,0.00,WUHU216DAVISVP2,2013-03-11 22:21:00,
2013-03-11 18:26:00,61.2,44.9,29.76,WNW,300,3.0,10.0,55,0.00,,,0.00,WUHU216DAVISVP2,2013-03-11 22:26:00,
2013-03-11 18:31:00,61.2,44.9,29.75,South,179,1.7,11.0,55,0.00,,,0.00,WUHU216DAVISVP2,2013-03-11 22:31:00,
2013-03-11 18:36:00,61.2,44.9,29.76,SW,223,2.0,11.0,55,0.00,,,0.00,WUHU216DAVISVP2,2013-03-11 22:36:00,
2013-03-11 18:41:00,61.2,45.0,29.76,WSW,245,3.1,13.0,55,0.00,,,0.00,WUHU216DAVISVP2,2013-03-11 22:41:00,
2013-03-11 18:46:00,61.3,45.1,29.75,NE,40,3.6,13.0,55,0.00,,,0.00,WUHU216DAVISVP2,2013-03-11 22:46:00,
2013-03-11 18:51:00,61.3,45.1,29.76,West,262,2.0,12.0,55,0.00,,,0.00,WUHU216DAVISVP2,2013-03-11 22:51:00,
2013-03-11 18:56:00,61.3,45.1,29.75,West,274,1.4,13.0,55,0.00,,,0.00,WUHU216DAVISVP2,2013-03-11 22:56:00,
2013-03-11 19:01:00,61.2,45.0,29.75,NE,46,1.4,13.0,55,0.00,,,0.00,WUHU216DAVISVP2,2013-03-11 23:01:00,
2013-03-11 19:06:00,61.1,44.9,29.75,South,186,9.0,13.0,55,0.00,,,0.00,WUHU216DAVISVP2,2013-03-11 23:06:00,
2013-03-11 19:11:00,61.3,45.1,29.75,SW,220,3.3,12.0,55,0.00,,,0.00,WUHU216DAVISVP2,2013-03-11 23:11:00,
2013-03-11 19:16:00,61.3,45.1,29.75,SW,214,3.6,12.0,55,0.00,,,0.00,WUHU216DAVISVP2,2013-03-11 23:16:00,
2013-03-11 19:21:00,61.3,45.1,29.75,West,262,2.0,12.0,55,0.00,,,0.00,WUHU216DAVISVP2,2013-03-11 23:21:00,
2013-03-11 19:26:00,61.2,45.5,29.74,SSW,205,1.7,10.0,56,0.00,,,0.00,WUHU216DAVISVP2,2013-03-11 23:26:00,
2013-03-11 19:31:00,61.2,45.5,29.74,East,93,3.1,10.0,56,0.00,,,0.00,WUHU216DAVISVP2,2013-03-11 23:31:00,
2013-03-11 19:36:00,61.1,45.4,29.75,SSE,158,2.4,10.0,56,0.00,,,0.00,WUHU216DAVISVP2,2013-03-11 23:36:00,
2013-03-11 19:41:00,61.1,45.4,29.75,SE,139,3.5,7.0,56,0.00,,,0.00,WUHU216DAVISVP2,2013-03-11 23:41:00,
2013-03-11 19:46:00,61.1,45.4,29.76,ESE,110,2.4,9.0,56,0.00,,,0.00,WUHU216DAVISVP2,2013-03-11 23:46:00,
2013-03-11 19:51:00,60.9,45.2,29.76,NW,305,3.0,9.0,56,0.00,,,0.00,WUHU216DAVISVP2,2013-03-11 23:51:00,
2013-03-11 19:56:00,60.8,45.6,29.76,SE,125,1.2,9.0,57,0.00,,,0.00,WUHU216DAVISVP2,2013-03-11 23:56:00,
2013-03-11 20:01:00,60.8,45.6,29.76,SE,135,8.0,14.0,57,0.00,,,0.00,WUHU216DAVISVP2,2013-03-12 00:01:00,
2013-03-11 20:06:00,60.7,46.0,29.76,South,180,1.5,14.0,58,0.00,,,0.00,WUHU216DAVISVP2,2013-03-12 00:06:00,
2013-03-11 20:11:00,60.4,45.5,29.76,ESE,107,2.5,12.0,58,0.00,,,0.00,WUHU216DAVISVP2,2013-03-12 00:11:00,
2013-03-11 20:16:00,60.3,46.0,29.76,ESE,118,1.8,12.0,59,0.00,,,0.00,WUHU216DAVISVP2,2013-03-12 00:16:00,
2013-03-11 20:21:00,60.3,46.5,29.77,ESE,108,4.0,6.0,60,0.00,,,0.00,WUHU216DAVISVP2,2013-03-12 00:21:00,
2013-03-11 20:26:00,60.1,46.7,29.77,NW,305,4.0,6.0,61,0.00,,,0.00,WUHU216DAVISVP2,2013-03-12 00:26:00,
2013-03-11 20:31:00,60.0,47.5,29.78,SSW,199,1.7,8.0,63,0.00,,,0.00,WUHU216DAVISVP2,2013-03-12 00:31:00,
2013-03-11 20:36:00,59.4,47.4,29.78,East,84,3.0,8.0,64,0.00,,,0.00,WUHU216DAVISVP2,2013-03-12 00:36:00,
2013-03-11 20:41:00,58.9,48.0,29.79,South,169,1.5,8.0,67,0.00,,,0.00,WUHU216DAVISVP2,2013-03-12 00:41:00,
2013-03-11 20:46:00,58.3,48.3,29.80,WSW,245,1.4,7.0,69,0.00,,,0.00,WUHU216DAVISVP2,2013-03-12 00:46:00,
2013-03-11 20:52:00,57.9,48.7,29.80,South,191,3.0,7.0,71,0.00,,,0.00,WUHU216DAVISVP2,2013-03-12 00:52:00,
2013-03-11 20:57:00,57.4,48.9,29.79,WSW,257,1.0,7.0,73,0.01,,,0.01,WUHU216DAVISVP2,2013-03-12 00:57:00,
2013-03-11 21:02:00,57.0,48.5,29.78,WSW,249,1.0,7.0,73,0.01,,,0.01,WUHU216DAVISVP2,2013-03-12 01:02:00,
2013-03-11 21:07:00,56.4,49.3,29.78,ESE,116,1.7,6.0,77,0.01,,,0.01,WUHU216DAVISVP2,2013-03-12 01:07:00,
2013-03-11 21:12:00,55.8,49.0,29.77,SSW,194,1.0,6.0,78,0.01,,,0.01,WUHU216DAVISVP2,2013-03-12 01:12:00,
2013-03-11 21:17:00,55.5,49.1,29.77,East,94,1.0,6.0,79,0.01,,,0.01,WUHU216DAVISVP2,2013-03-12 01:17:00,
2013-03-11 21:22:00,55.1,49.0,29.77,ENE,74,1.0,3.0,80,0.02,,,0.02,WUHU216DAVISVP2,2013-03-12 01:22:00,
2013-03-11 21:27:00,54.8,49.1,29.77,ENE,74,0.0,2.0,81,0.02,,,0.02,WUHU216DAVISVP2,2013-03-12 01:27:00,
2013-03-11 21:32:00,54.2,49.1,29.77,WSW,239,1.0,1.0,83,0.02,,,0.02,WUHU216DAVISVP2,2013-03-12 01:32:00,
2013-03-11 21:37:00,53.9,49.5,29.77,ESE,110,1.0,1.0,85,0.02,,,0.02,WUHU216DAVISVP2,2013-03-12 01:37:00,
2013-03-11 21:42:00,53.5,49.1,29.76,ESE,118,2.0,2.0,85,0.02,,,0.02,WUHU216DAVISVP2,2013-03-12 01:42:00,
2013-03-11 21:47:00,53.9,49.2,29.76,East,89,2.0,3.0,84,0.02,,,0.02,WUHU216DAVISVP2,2013-03-12 01:47:00,
2013-03-11 21:52:00,53.9,49.5,29.76,East,95,1.3,3.0,85,0.02,,,0.02,WUHU216DAVISVP2,2013-03-12 01:52:00,
2013-03-11 21:57:00,53.5,49.1,29.75,ENE,65,0.0,2.0,85,0.01,,,0.02,WUHU216DAVISVP2,2013-03-12 01:57:00,
2013-03-11 22:02:00,53.3,49.2,29.75,East,93,1.0,2.0,86,0.01,,,0.02,WUHU216DAVISVP2,2013-03-12 02:02:00,
2013-03-11 22:07:00,53.0,49.2,29.76,East,93,0.0,2.0,87,0.01,,,0.02,WUHU216DAVISVP2,2013-03-12 02:07:00,
2013-03-11 22:12:00,52.9,49.1,29.76,WNW,288,5.0,5.0,87,0.01,,,0.02,WUHU216DAVISVP2,2013-03-12 02:12:00,
2013-03-11 22:17:00,53.5,49.4,29.76,ESE,109,1.1,6.0,86,0.00,,,0.02,WUHU216DAVISVP2,2013-03-12 02:17:00,
2013-03-11 22:22:00,53.6,49.5,29.76,WSW,239,1.0,6.0,86,0.00,,,0.02,WUHU216DAVISVP2,2013-03-12 02:22:00,
2013-03-11 22:27:00,53.2,49.4,29.76,WSW,239,1.0,6.0,87,0.00,,,0.02,WUHU216DAVISVP2,2013-03-12 02:27:00,
2013-03-11 22:32:00,52.6,49.1,29.76,WSW,239,0.0,2.0,88,0.00,,,0.02,WUHU216DAVISVP2,2013-03-12 02:32:00,
2013-03-11 22:37:00,52.5,49.3,29.78,WSW,240,1.0,2.0,89,0.00,,,0.02,WUHU216DAVISVP2,2013-03-12 02:37:00,
2013-03-11 22:42:00,52.4,49.2,29.77,WSW,245,0.0,1.0,89,0.00,,,0.02,WUHU216DAVISVP2,2013-03-12 02:42:00,
2013-03-11 22:47:00,51.8,48.6,29.77,WSW,245,1.0,1.0,89,0.00,,,0.02,WUHU216DAVISVP2,2013-03-12 02:47:00,
2013-03-11 22:52:00,51.8,48.9,29.77,WSW,245,0.0,1.0,90,0.01,,,0.03,WUHU216DAVISVP2,2013-03-12 02:52:00,
2013-03-11 22:57:00,51.8,49.2,29.77,WSW,245,0.0,1.0,91,0.01,,,0.03,WUHU216DAVISVP2,2013-03-12 02:57:00,
2013-03-11 23:02:00,51.9,49.3,29.77,WSW,245,0.0,1.0,91,0.01,,,0.03,WUHU216DAVISVP2,2013-03-12 03:02:00,
2013-03-11 23:07:00,51.7,49.1,29.77,WSW,245,1.0,1.0,91,0.01,,,0.03,WUHU216DAVISVP2,2013-03-12 03:07:00,
2013-03-11 23:12:00,51.6,49.0,29.78,South,191,0.0,1.0,91,0.01,,,0.03,WUHU216DAVISVP2,2013-03-12 03:12:00,
2013-03-11 23:17:00,51.6,49.0,29.78,South,191,0.0,1.0,91,0.01,,,0.03,WUHU216DAVISVP2,2013-03-12 03:17:00,
2013-03-11 23:22:00,52.2,49.6,29.78,WSW,252,2.1,5.0,91,0.01,,,0.03,WUHU216DAVISVP2,2013-03-12 03:22:00,
2013-03-11 23:27:00,53.2,50.0,29.78,WSW,253,1.8,5.0,89,0.01,,,0.03,WUHU216DAVISVP2,2013-03-12 03:27:00,
2013-03-11 23:32:00,53.6,50.1,29.78,ESE,121,1.0,5.0,88,0.02,,,0.04,WUHU216DAVISVP2,2013-03-12 03:32:00,
2013-03-11 23:37:00,53.6,50.1,29.78,ESE,109,0.0,5.0,88,0.02,,,0.04,WUHU216DAVISVP2,2013-03-12 03:37:00,
2013-03-11 23:42:00,53.6,50.1,29.77,ESE,109,1.0,3.0,88,0.02,,,0.04,WUHU216DAVISVP2,2013-03-12 03:42:00,
2013-03-11 23:47:00,53.6,50.1,29.78,NE,56,0.0,2.0,88,0.02,,,0.04,WUHU216DAVISVP2,2013-03-12 03:47:00,
2013-03-11 23:52:00,53.5,50.0,29.77,WNW,288,0.0,1.0,88,0.01,,,0.04,WUHU216DAVISVP2,2013-03-12 03:52:00,
2013-03-11 23:57:00,53.3,49.8,29.77,WNW,288,0.0,1.0,88,0.01,,,0.04,WUHU216DAVISVP2,2013-03-12 03:57:00,